createdAt,value
2016-05-23T00:00:26.231Z,16.4
2016-05-23T00:03:40.333Z,16.3
2016-05-23T00:06:59.622Z,16.2
2016-05-23T00:10:04.412Z,16.2
2016-05-23T00:13:18.875Z,16.2
2016-05-23T00:16:33.025Z,16.2
2016-05-23T00:19:46.736Z,16.1
2016-05-23T00:23:05.649Z,16.1
2016-05-23T00:26:10.661Z,16.1
2016-05-23T00:29:24.715Z,16.1
2016-05-23T00:32:38.489Z,16.1
2016-05-23T00:35:52.294Z,16
2016-05-23T00:39:06.318Z,15.9
2016-05-23T00:42:20.485Z,16
2016-05-23T00:45:34.555Z,16.1
2016-05-23T00:48:48.173Z,16
2016-05-23T00:52:06.932Z,16
2016-05-23T00:55:11.692Z,16
2016-05-23T00:58:25.981Z,15.9
2016-05-23T01:01:39.677Z,15.9
2016-05-23T01:04:53.623Z,15.8
2016-05-23T01:08:07.317Z,15.9
2016-05-23T01:11:21.391Z,15.9
2016-05-23T01:14:35.664Z,15.9
2016-05-23T01:17:49.501Z,15.8
2016-05-23T01:21:08.713Z,15.6
2016-05-23T01:24:13.348Z,15.7
2016-05-23T01:27:25.685Z,15.6
2016-05-23T01:30:42.161Z,15.6
2016-05-23T01:34:00.684Z,15.6
2016-05-23T01:37:05.489Z,15.6
2016-05-23T01:40:19.375Z,15.6
2016-05-23T01:43:33.649Z,15.5
2016-05-23T01:46:47.282Z,15.5
2016-05-23T01:50:06.337Z,15.5
2016-05-23T01:53:10.923Z,15.5
2016-05-23T01:56:24.668Z,15.4
2016-05-23T01:59:38.707Z,15.3
2016-05-23T02:02:52.904Z,15.2
2016-05-23T02:06:06.256Z,15.2
2016-05-23T02:09:20.470Z,15.1
2016-05-23T02:12:34.617Z,15.2
2016-05-23T02:15:48.500Z,15.2
2016-05-23T02:19:07.290Z,15.1
2016-05-23T02:22:12.174Z,15.1
2016-05-23T02:25:26.309Z,15.1
2016-05-23T02:28:39.770Z,15
2016-05-23T02:31:53.903Z,15
2016-05-23T02:35:07.584Z,15
2016-05-23T02:38:21.609Z,14.9
2016-05-23T02:41:35.509Z,14.9
2016-05-23T02:44:49.922Z,14.8
2016-05-23T02:48:08.446Z,14.8
2016-05-23T02:51:13.080Z,14.7
2016-05-23T02:54:26.808Z,14.6
2016-05-23T02:57:40.536Z,14.5
2016-05-23T03:00:59.559Z,14.5
2016-05-23T03:04:09.036Z,14.5
2016-05-23T03:07:11.497Z,14.5
2016-05-23T03:10:27.476Z,14.6
2016-05-23T03:13:41.313Z,14.6
2016-05-23T03:17:00.368Z,14.6
2016-05-23T03:20:05.080Z,14.7
2016-05-23T03:23:18.949Z,14.7
2016-05-23T03:26:32.958Z,14.6
2016-05-23T03:29:47.168Z,14.6
2016-05-23T03:33:05.957Z,14.6
2016-05-23T03:36:10.513Z,14.5
2016-05-23T03:39:24.429Z,14.5
2016-05-23T03:42:38.406Z,14.5
2016-05-23T03:45:52.430Z,14.5
2016-05-23T03:49:06.283Z,14.5
2016-05-23T03:52:20.230Z,14.5
2016-05-23T03:55:34.348Z,14.6
2016-05-23T03:58:48.574Z,14.6
2016-05-23T04:02:07.504Z,14.7
2016-05-23T04:05:12.154Z,14.8
2016-05-23T04:08:26.524Z,14.9
2016-05-23T04:11:40.422Z,15.1
2016-05-23T04:14:54.399Z,15.2
2016-05-23T04:18:08.548Z,15.3
2016-05-23T04:21:22.449Z,15.4
2016-05-23T04:24:36.441Z,15.5
2016-05-23T04:27:50.231Z,15.7
2016-05-23T04:31:09.316Z,15.8
2016-05-23T04:34:14.028Z,15.9
2016-05-23T04:37:27.992Z,16.1
2016-05-23T04:40:41.968Z,16.2
2016-05-23T04:44:01.321Z,16.3
2016-05-23T04:47:04.282Z,16.5
2016-05-23T04:50:20.337Z,16.7
2016-05-23T04:53:34.176Z,16.9
2016-05-23T04:56:47.887Z,17.1
2016-05-23T05:00:06.926Z,17.3
2016-05-23T05:03:09.903Z,17.5
2016-05-23T05:06:23.505Z,17.8
2016-05-23T05:09:39.688Z,17.9
2016-05-23T05:12:53.680Z,18
2016-05-23T05:16:07.828Z,18.4
2016-05-23T05:19:22.071Z,19
2016-05-23T05:22:36.738Z,19.3
2016-05-23T05:25:50.871Z,19.7
2016-05-23T05:29:05.302Z,20
2016-05-23T05:32:19.794Z,20.1
2016-05-23T05:35:34.258Z,20.3
2016-05-23T05:38:48.563Z,20.3
2016-05-23T05:42:07.477Z,20.2
2016-05-23T05:45:12.407Z,20.3
2016-05-23T05:48:26.290Z,20.2
2016-05-23T05:51:40.332Z,20.2
2016-05-23T05:54:54.450Z,20.3
2016-05-23T05:58:08.786Z,20.8
2016-05-23T06:01:20.747Z,21.3
2016-05-23T06:04:41.586Z,22
2016-05-23T06:07:51.687Z,23
2016-05-23T06:11:08.477Z,23.7
2016-05-23T06:14:20.875Z,24.6
2016-05-23T06:17:33.887Z,25.5
2016-05-23T06:20:50.707Z,26.5
2016-05-23T06:24:05.980Z,27.3
2016-05-23T06:27:20.551Z,27.6
2016-05-23T06:30:35.156Z,28
2016-05-23T06:33:49.992Z,28.1
2016-05-23T06:37:05.000Z,28.3
2016-05-23T06:40:19.882Z,28.8
2016-05-23T06:43:34.753Z,29.3
2016-05-23T06:46:49.762Z,29.7
2016-05-23T06:50:09.727Z,29.4
2016-05-23T06:53:15.514Z,29.1
2016-05-23T06:56:30.705Z,29.1
2016-05-23T06:59:45.865Z,29.3
2016-05-23T07:03:05.118Z,29.1
2016-05-23T07:06:10.972Z,29.8
2016-05-23T07:09:26.343Z,30.3
2016-05-23T07:12:41.527Z,30
2016-05-23T07:16:01.161Z,29.8
2016-05-23T07:19:06.763Z,29.6
2016-05-23T07:22:22.038Z,29.8
2016-05-23T07:25:37.048Z,29.4
2016-05-23T07:28:52.228Z,28.9
2016-05-23T07:32:07.298Z,29.3
2016-05-23T07:35:22.495Z,30.3
2016-05-23T07:38:37.693Z,30.9
2016-05-23T07:41:52.794Z,31.8
2016-05-23T07:45:08.319Z,33
2016-05-23T07:48:23.763Z,33.8
2016-05-23T07:51:39.446Z,34.5
2016-05-23T07:54:55.235Z,34.8
2016-05-23T07:58:11.087Z,35.3
2016-05-23T08:01:26.252Z,35.4
2016-05-23T08:04:39.231Z,35.5
2016-05-23T08:07:54.927Z,35.7
2016-05-23T08:11:13.076Z,36.3
2016-05-23T08:14:26.412Z,36.6
2016-05-23T08:17:42.516Z,36.6
2016-05-23T08:21:03.321Z,36.9
2016-05-23T08:24:09.766Z,37.3
2016-05-23T08:27:23.509Z,37.5
2016-05-23T08:30:41.489Z,37.8
2016-05-23T08:33:54.184Z,37.9
2016-05-23T08:37:10.161Z,37.9
2016-05-23T08:40:25.294Z,37.8
2016-05-23T08:43:40.867Z,37.8
2016-05-23T08:47:00.813Z,38.4
2016-05-23T08:50:06.961Z,38.1
2016-05-23T08:53:22.548Z,37.9
2016-05-23T08:56:37.715Z,38
2016-05-23T08:59:52.942Z,37.1
2016-05-23T09:03:08.434Z,37.2
2016-05-23T09:06:24.270Z,37.6
2016-05-23T09:09:40.297Z,37.6
2016-05-23T09:12:55.523Z,36.6
2016-05-23T09:16:11.094Z,36.5
2016-05-23T09:19:26.759Z,36.1
2016-05-23T09:22:42.425Z,37
2016-05-23T09:26:03.152Z,37.9
2016-05-23T09:29:09.410Z,38.4
2016-05-23T09:32:25.231Z,38.6
2016-05-23T09:35:41.023Z,38.6
2016-05-23T09:39:01.578Z,38.8
2016-05-23T09:42:07.695Z,38.5
2016-05-23T09:45:23.328Z,38.1
2016-05-23T09:48:36.681Z,38.1
2016-05-23T09:51:54.894Z,37.9
2016-05-23T09:55:09.980Z,37.8
2016-05-23T09:58:25.457Z,37.7
2016-05-23T10:01:40.968Z,37.4
2016-05-23T10:05:00.851Z,37.3
2016-05-23T10:08:06.687Z,37.1
2016-05-23T10:11:20.445Z,37.1
2016-05-23T10:14:37.672Z,36.8
2016-05-23T10:17:52.947Z,35.9
2016-05-23T10:21:07.816Z,34.8
2016-05-23T10:24:21.230Z,33.7
2016-05-23T10:27:35.988Z,33
2016-05-23T10:30:48.905Z,32.3
2016-05-23T10:34:10.631Z,31.7
2016-05-23T10:37:15.687Z,31
2016-05-23T10:40:30.570Z,30
2016-05-23T10:43:43.252Z,29.4
2016-05-23T10:47:02.839Z,29.2
2016-05-23T10:50:07.816Z,28.9
2016-05-23T10:53:20.183Z,28.7
2016-05-23T10:56:34.863Z,28.2
2016-05-23T10:59:49.655Z,28
2016-05-23T11:03:09.304Z,27.7
2016-05-23T11:06:14.515Z,27.3
2016-05-23T11:09:28.804Z,27.2
2016-05-23T11:12:43.612Z,26.9
2016-05-23T11:16:02.714Z,26.5
2016-05-23T11:19:08.675Z,26
2016-05-23T11:22:22.152Z,25.7
2016-05-23T11:25:36.722Z,25.9
2016-05-23T11:28:49.014Z,25.8
2016-05-23T11:32:08.038Z,25.6
2016-05-23T11:35:13.359Z,25.5
2016-05-23T11:38:28.132Z,25.5
2016-05-23T11:41:43.143Z,25.5
2016-05-23T11:45:03.042Z,25.4
2016-05-23T11:48:08.409Z,25.5
2016-05-23T11:51:22.839Z,25.4
2016-05-23T11:54:37.394Z,25.5
2016-05-23T11:57:52.030Z,25.5
2016-05-23T12:01:06.756Z,25.4
2016-05-23T12:04:21.624Z,25
2016-05-23T12:07:36.163Z,24.8
2016-05-23T12:10:50.549Z,24.8
2016-05-23T12:14:10.120Z,24.8
2016-05-23T12:17:15.315Z,24.6
2016-05-23T12:20:30.308Z,24.5
2016-05-23T12:23:45.397Z,24.4
2016-05-23T12:27:04.874Z,24.6
2016-05-23T12:30:10.288Z,24.7
2016-05-23T12:33:24.936Z,25
2016-05-23T12:36:39.163Z,24.8
2016-05-23T12:39:51.376Z,24.8
2016-05-23T12:43:08.104Z,24.8
2016-05-23T12:46:13.440Z,24.6
2016-05-23T12:49:28.323Z,24.5
2016-05-23T12:52:42.925Z,24.3
2016-05-23T12:56:02.654Z,24.2
2016-05-23T12:59:07.850Z,24
2016-05-23T13:02:22.702Z,23.9
2016-05-23T13:05:36.851Z,23.8
2016-05-23T13:08:51.674Z,23.6
2016-05-23T13:12:10.041Z,23.5
2016-05-23T13:15:15.345Z,23.6
2016-05-23T13:18:30.136Z,23.6
2016-05-23T13:21:44.503Z,23.7
2016-05-23T13:25:03.826Z,23.8
2016-05-23T13:28:09.225Z,24.1
2016-05-23T13:31:23.624Z,24.1
2016-05-23T13:34:38.304Z,24
2016-05-23T13:37:53.282Z,23.9
2016-05-23T13:41:10.041Z,24
2016-05-23T13:44:15.189Z,24
2016-05-23T13:47:30.135Z,24
2016-05-23T13:50:44.737Z,23.9
2016-05-23T13:54:04.388Z,23.8
2016-05-23T13:57:09.569Z,23.7
2016-05-23T14:00:24.561Z,23.8
2016-05-23T14:03:38.772Z,23.8
2016-05-23T14:06:53.705Z,23.7
2016-05-23T14:10:08.447Z,23.7
2016-05-23T14:13:22.924Z,23.6
2016-05-23T14:16:37.870Z,23.6
2016-05-23T14:19:52.568Z,23.5
2016-05-23T14:23:07.514Z,23.5
2016-05-23T14:26:19.928Z,23.4
2016-05-23T14:29:34.905Z,23.4
2016-05-23T14:32:49.446Z,23.4
2016-05-23T14:36:09.236Z,23.4
2016-05-23T14:39:14.557Z,23.4
2016-05-23T14:42:29.221Z,23.3
2016-05-23T14:45:44.088Z,23.3
2016-05-23T14:49:03.864Z,23.4
2016-05-23T14:52:09.185Z,23.5
2016-05-23T14:55:23.990Z,23.5
2016-05-23T14:58:38.858Z,23.6
2016-05-23T15:01:53.415Z,23.6
2016-05-23T15:05:08.361Z,23.5
2016-05-23T15:08:23.791Z,23.5
2016-05-23T15:11:37.705Z,23.4
2016-05-23T15:14:52.418Z,23.4
2016-05-23T15:18:07.240Z,23.3
2016-05-23T15:21:22.154Z,23.3
2016-05-23T15:24:37.100Z,23.2
2016-05-23T15:27:52.063Z,23.3
2016-05-23T15:31:11.681Z,23.2
2016-05-23T15:34:16.861Z,23.3
2016-05-23T15:37:29.493Z,23.2
2016-05-23T15:40:46.455Z,23.2
2016-05-23T15:44:06.185Z,23.2
2016-05-23T15:47:11.333Z,23.2
2016-05-23T15:50:26.138Z,23.1
2016-05-23T15:53:37.412Z,23
2016-05-23T15:56:56.217Z,22.9
2016-05-23T16:00:07.027Z,22.9
2016-05-23T16:03:21.653Z,22.8
2016-05-23T16:06:36.285Z,22.7
2016-05-23T16:09:50.802Z,22.7
2016-05-23T16:13:10.520Z,22.7
2016-05-23T16:16:15.608Z,22.7
2016-05-23T16:19:30.289Z,22.6
2016-05-23T16:22:43.125Z,22.6
2016-05-23T16:26:03.058Z,22.5
2016-05-23T16:29:07.958Z,22.4
2016-05-23T16:32:22.605Z,22.3
2016-05-23T16:35:37.238Z,22.2
2016-05-23T16:38:51.949Z,22.2
2016-05-23T16:42:11.476Z,22.2
2016-05-23T16:45:16.515Z,22.1
2016-05-23T16:48:31.211Z,22.1
2016-05-23T16:51:45.844Z,22.1
2016-05-23T16:55:05.433Z,22
2016-05-23T16:58:10.394Z,22
2016-05-23T17:01:22.855Z,21.9
2016-05-23T17:04:37.347Z,21.8
2016-05-23T17:07:52.027Z,21.8
2016-05-23T17:11:11.523Z,21.8
2016-05-23T17:14:16.421Z,21.7
2016-05-23T17:17:30.914Z,21.6
2016-05-23T17:20:45.484Z,21.5
2016-05-23T17:24:04.949Z,21.4
2016-05-23T17:27:09.972Z,21.4
2016-05-23T17:30:24.199Z,21.3
2016-05-23T17:33:38.769Z,21.2
2016-05-23T17:36:53.262Z,21.2
2016-05-23T17:40:07.695Z,21.1
2016-05-23T17:43:22.077Z,21.1
2016-05-23T17:46:36.539Z,21
2016-05-23T17:49:51.000Z,21
2016-05-23T17:53:10.448Z,20.9
2016-05-23T17:56:15.207Z,20.8
2016-05-23T17:59:29.839Z,20.8
2016-05-23T18:02:44.222Z,20.7
2016-05-23T18:06:03.702Z,20.7
2016-05-23T18:09:08.397Z,20.6
2016-05-23T18:12:22.890Z,20.6
2016-05-23T18:15:37.288Z,20.5
2016-05-23T18:18:53.532Z,20.5
2016-05-23T18:22:11.089Z,20.4
2016-05-23T18:25:15.769Z,20.4
2016-05-23T18:28:29.995Z,20.3
2016-05-23T18:31:44.472Z,20.3
2016-05-23T18:35:03.796Z,20.2
2016-05-23T18:38:08.804Z,20.1
2016-05-23T18:41:23.171Z,20
2016-05-23T18:44:37.929Z,20
2016-05-23T18:47:52.407Z,19.9
2016-05-23T18:51:11.917Z,19.8
2016-05-23T18:54:16.909Z,19.7
2016-05-23T18:57:29.995Z,19.7
2016-05-23T19:00:44.409Z,19.6
2016-05-23T19:04:05.155Z,19.6
2016-05-23T19:07:08.850Z,19.5
2016-05-23T19:10:23.390Z,19.5
2016-05-23T19:13:37.945Z,19.5
2016-05-23T19:16:52.593Z,19.4
2016-05-23T19:20:12.135Z,19.4
2016-05-23T19:23:17.018Z,19.3
2016-05-23T19:26:31.651Z,19.3
2016-05-23T19:29:46.253Z,19.3
2016-05-23T19:33:05.702Z,19.2
2016-05-23T19:36:10.663Z,19.2
2016-05-23T19:39:25.108Z,19.1
2016-05-23T19:42:39.522Z,19.1
2016-05-23T19:45:53.999Z,19.1
2016-05-23T19:49:08.635Z,19.1
2016-05-23T19:52:23.253Z,19
2016-05-23T19:55:37.807Z,19
2016-05-23T19:58:52.801Z,18.9
2016-05-23T20:02:11.826Z,18.9
2016-05-23T20:05:16.631Z,18.8
2016-05-23T20:08:31.046Z,18.8
2016-05-23T20:11:45.600Z,18.7
2016-05-23T20:15:05.096Z,18.7
2016-05-23T20:18:09.948Z,18.7
2016-05-23T20:21:24.424Z,18.6
2016-05-23T20:24:38.917Z,18.6
2016-05-23T20:27:53.348Z,18.5
2016-05-23T20:31:07.717Z,18.4
2016-05-23T20:34:21.819Z,18.4
2016-05-23T20:37:35.999Z,18.3
2016-05-23T20:40:50.382Z,18.3
2016-05-23T20:44:08.580Z,18.3
2016-05-23T20:47:13.259Z,18.3
2016-05-23T20:50:27.721Z,18.2
2016-05-23T20:53:42.151Z,18.2
2016-05-23T20:56:55.159Z,18.2
2016-05-23T21:00:10.545Z,18.1
2016-05-23T21:03:24.694Z,18
2016-05-23T21:06:38.498Z,17.9
2016-05-23T21:09:52.835Z,17.9
2016-05-23T21:13:11.533Z,17.8
2016-05-23T21:16:13.837Z,17.8
2016-05-23T21:19:30.065Z,17.8
2016-05-23T21:22:44.495Z,17.7
2016-05-23T21:26:03.787Z,17.2
2016-05-23T21:29:08.545Z,15.8
2016-05-23T21:32:21.522Z,15
2016-05-23T21:35:35.014Z,14.4
2016-05-23T21:38:49.209Z,14.2
2016-05-23T21:42:08.345Z,14.1
2016-05-23T21:45:13.228Z,14.2
2016-05-23T21:48:27.330Z,14.2
2016-05-23T21:51:41.573Z,14.1
2016-05-23T21:54:59.877Z,14.1
2016-05-23T21:58:09.638Z,14.1
2016-05-23T22:01:23.787Z,14
2016-05-23T22:04:36.998Z,14
2016-05-23T22:07:51.272Z,13.9
2016-05-23T22:11:10.407Z,13.9
2016-05-23T22:14:15.306Z,13.9
2016-05-23T22:17:28.533Z,14
2016-05-23T22:20:42.322Z,14.1
2016-05-23T22:23:56.377Z,14.2
2016-05-23T22:27:10.435Z,14.3
2016-05-23T22:30:23.396Z,14.3
2016-05-23T22:33:36.982Z,14.4
2016-05-23T22:36:51.131Z,14.4
2016-05-23T22:40:09.922Z,14.5
2016-05-23T22:43:14.369Z,14.4
2016-05-23T22:46:27.252Z,14.2
2016-05-23T22:49:40.635Z,14.2
2016-05-23T22:52:54.549Z,14.2
2016-05-23T22:56:08.451Z,14.2
2016-05-23T22:59:22.459Z,14.2
2016-05-23T23:02:36.154Z,14.1
2016-05-23T23:05:49.943Z,14.2
2016-05-23T23:09:08.766Z,14.2
2016-05-23T23:12:13.322Z,14.2
2016-05-23T23:15:24.517Z,14.1
2016-05-23T23:18:40.494Z,14
2016-05-23T23:21:54.518Z,14
2016-05-23T23:25:08.404Z,13.9
2016-05-23T23:28:22.224Z,13.9
2016-05-23T23:31:36.060Z,13.8
2016-05-23T23:34:49.881Z,13.8
2016-05-23T23:38:08.672Z,13.8
2016-05-23T23:41:13.009Z,13.8
2016-05-23T23:44:27.252Z,13.7
2016-05-23T23:47:41.025Z,13.7
2016-05-23T23:50:54.799Z,13.7
2016-05-23T23:54:08.747Z,13.8
2016-05-23T23:57:23.115Z,13.8
